sensor_id;sensor_type;location;lat;lon;timestamp;P1;durP1;ratioP1;P2;durP2;ratioP2
21581;SDS011;10952;50.836;4.348;2024-01-30T00:03:48;7.43;;;4.57;;
21581;SDS011;10952;50.836;4.348;2024-01-30T00:06:28;10.37;;;5.57;;
21581;SDS011;10952;50.836;4.348;2024-01-30T00:08:54;8.07;;;4.70;;
21581;SDS011;10952;50.836;4.348;2024-01-30T00:11:20;8.37;;;5.10;;
21581;SDS011;10952;50.836;4.348;2024-01-30T00:13:49;7.00;;;4.60;;
21581;SDS011;10952;50.836;4.348;2024-01-30T00:16:21;10.75;;;5.22;;
21581;SDS011;10952;50.836;4.348;2024-01-30T00:21:20;6.90;;;4.30;;
21581;SDS011;10952;50.836;4.348;2024-01-30T00:26:14;9.90;;;4.90;;
21581;SDS011;10952;50.836;4.348;2024-01-30T00:28:42;6.53;;;4.10;;
21581;SDS011;10952;50.836;4.348;2024-01-30T00:34:04;10.57;;;4.40;;
21581;SDS011;10952;50.836;4.348;2024-01-30T00:36:39;8.40;;;4.30;;
21581;SDS011;10952;50.836;4.348;2024-01-30T00:39:07;8.90;;;4.70;;
21581;SDS011;10952;50.836;4.348;2024-01-30T00:41:37;10.00;;;4.50;;
21581;SDS011;10952;50.836;4.348;2024-01-30T00:44:05;9.37;;;4.57;;
21581;SDS011;10952;50.836;4.348;2024-01-30T00:46:39;9.70;;;4.27;;
21581;SDS011;10952;50.836;4.348;2024-01-30T00:49:08;7.73;;;4.57;;
21581;SDS011;10952;50.836;4.348;2024-01-30T00:51:36;8.40;;;4.23;;
21581;SDS011;10952;50.836;4.348;2024-01-30T00:54:04;6.93;;;4.27;;
21581;SDS011;10952;50.836;4.348;2024-01-30T00:56:34;6.83;;;4.37;;
21581;SDS011;10952;50.836;4.348;2024-01-30T00:59:00;9.83;;;4.80;;
21581;SDS011;10952;50.836;4.348;2024-01-30T01:01:28;9.23;;;4.23;;
21581;SDS011;10952;50.836;4.348;2024-01-30T01:03:54;8.47;;;5.03;;
21581;SDS011;10952;50.836;4.348;2024-01-30T01:06:20;5.83;;;3.80;;
21581;SDS011;10952;50.836;4.348;2024-01-30T01:08:47;10.83;;;4.53;;
21581;SDS011;10952;50.836;4.348;2024-01-30T01:11:14;6.03;;;4.03;;
21581;SDS011;10952;50.836;4.348;2024-01-30T01:13:43;7.30;;;4.70;;
21581;SDS011;10952;50.836;4.348;2024-01-30T01:16:09;7.67;;;4.53;;
21581;SDS011;10952;50.836;4.348;2024-01-30T01:18:41;8.60;;;4.17;;
21581;SDS011;10952;50.836;4.348;2024-01-30T01:21:08;9.80;;;5.07;;
21581;SDS011;10952;50.836;4.348;2024-01-30T01:23:33;7.83;;;4.53;;
21581;SDS011;10952;50.836;4.348;2024-01-30T01:26:01;7.97;;;4.30;;
21581;SDS011;10952;50.836;4.348;2024-01-30T01:28:27;7.53;;;4.53;;
21581;SDS011;10952;50.836;4.348;2024-01-30T01:30:54;5.50;;;4.03;;
21581;SDS011;10952;50.836;4.348;2024-01-30T01:33:24;6.13;;;3.67;;
21581;SDS011;10952;50.836;4.348;2024-01-30T01:35:50;11.37;;;4.20;;
21581;SDS011;10952;50.836;4.348;2024-01-30T01:38:15;7.00;;;4.00;;
21581;SDS011;10952;50.836;4.348;2024-01-30T01:40:43;8.20;;;4.43;;
21581;SDS011;10952;50.836;4.348;2024-01-30T01:43:09;9.47;;;4.17;;
21581;SDS011;10952;50.836;4.348;2024-01-30T01:45:38;7.80;;;4.27;;
21581;SDS011;10952;50.836;4.348;2024-01-30T01:48:10;8.93;;;3.97;;
21581;SDS011;10952;50.836;4.348;2024-01-30T01:50:40;9.93;;;4.77;;
21581;SDS011;10952;50.836;4.348;2024-01-30T01:53:10;10.13;;;4.47;;
21581;SDS011;10952;50.836;4.348;2024-01-30T01:55:37;9.57;;;4.40;;
21581;SDS011;10952;50.836;4.348;2024-01-30T01:58:13;8.60;;;4.20;;
21581;SDS011;10952;50.836;4.348;2024-01-30T02:00:45;6.87;;;4.13;;
21581;SDS011;10952;50.836;4.348;2024-01-30T02:03:17;7.27;;;3.93;;
21581;SDS011;10952;50.836;4.348;2024-01-30T02:06:03;9.13;;;4.10;;
21581;SDS011;10952;50.836;4.348;2024-01-30T02:08:29;9.43;;;3.80;;
21581;SDS011;10952;50.836;4.348;2024-01-30T02:10:56;6.73;;;4.03;;
21581;SDS011;10952;50.836;4.348;2024-01-30T02:15:53;8.87;;;4.60;;
21581;SDS011;10952;50.836;4.348;2024-01-30T02:18:20;8.63;;;4.50;;
21581;SDS011;10952;50.836;4.348;2024-01-30T02:20:50;9.07;;;4.43;;
21581;SDS011;10952;50.836;4.348;2024-01-30T02:23:20;9.10;;;4.83;;
21581;SDS011;10952;50.836;4.348;2024-01-30T02:25:46;9.03;;;4.50;;
21581;SDS011;10952;50.836;4.348;2024-01-30T02:28:14;7.40;;;3.73;;
21581;SDS011;10952;50.836;4.348;2024-01-30T02:30:42;9.17;;;4.20;;
21581;SDS011;10952;50.836;4.348;2024-01-30T02:33:08;7.77;;;4.10;;
21581;SDS011;10952;50.836;4.348;2024-01-30T02:35:37;10.23;;;4.37;;
21581;SDS011;10952;50.836;4.348;2024-01-30T02:38:04;11.30;;;4.60;;
21581;SDS011;10952;50.836;4.348;2024-01-30T02:40:31;9.23;;;4.20;;
21581;SDS011;10952;50.836;4.348;2024-01-30T02:43:01;8.70;;;4.30;;
21581;SDS011;10952;50.836;4.348;2024-01-30T02:45:30;7.67;;;4.03;;
21581;SDS011;10952;50.836;4.348;2024-01-30T02:50:25;8.33;;;4.30;;
21581;SDS011;10952;50.836;4.348;2024-01-30T02:55:19;10.00;;;4.67;;
21581;SDS011;10952;50.836;4.348;2024-01-30T02:57:45;8.23;;;4.13;;
21581;SDS011;10952;50.836;4.348;2024-01-30T03:00:13;13.17;;;4.30;;
21581;SDS011;10952;50.836;4.348;2024-01-30T03:02:39;7.93;;;3.80;;
21581;SDS011;10952;50.836;4.348;2024-01-30T03:10:04;9.03;;;4.80;;
21581;SDS011;10952;50.836;4.348;2024-01-30T03:12:32;10.33;;;4.37;;
21581;SDS011;10952;50.836;4.348;2024-01-30T03:15:02;9.40;;;4.20;;
21581;SDS011;10952;50.836;4.348;2024-01-30T03:17:29;8.27;;;4.63;;
21581;SDS011;10952;50.836;4.348;2024-01-30T03:19:55;8.23;;;4.67;;
21581;SDS011;10952;50.836;4.348;2024-01-30T03:24:53;9.70;;;4.23;;
21581;SDS011;10952;50.836;4.348;2024-01-30T03:27:18;10.37;;;4.70;;
21581;SDS011;10952;50.836;4.348;2024-01-30T03:29:45;8.13;;;4.20;;
21581;SDS011;10952;50.836;4.348;2024-01-30T03:32:14;8.13;;;4.37;;
21581;SDS011;10952;50.836;4.348;2024-01-30T03:34:41;8.83;;;5.20;;
21581;SDS011;10952;50.836;4.348;2024-01-30T03:37:13;7.40;;;4.40;;
21581;SDS011;10952;50.836;4.348;2024-01-30T03:39:41;10.10;;;5.00;;
21581;SDS011;10952;50.836;4.348;2024-01-30T03:42:08;7.67;;;4.10;;
21581;SDS011;10952;50.836;4.348;2024-01-30T03:44:34;8.60;;;4.67;;
21581;SDS011;10952;50.836;4.348;2024-01-30T03:47:00;10.23;;;4.47;;
21581;SDS011;10952;50.836;4.348;2024-01-30T03:49:26;9.87;;;4.83;;
21581;SDS011;10952;50.836;4.348;2024-01-30T03:51:52;9.63;;;4.50;;
21581;SDS011;10952;50.836;4.348;2024-01-30T03:54:21;8.83;;;4.60;;
21581;SDS011;10952;50.836;4.348;2024-01-30T03:56:56;8.53;;;4.10;;
21581;SDS011;10952;50.836;4.348;2024-01-30T04:01:52;8.77;;;4.00;;
21581;SDS011;10952;50.836;4.348;2024-01-30T04:04:24;10.97;;;4.23;;
21581;SDS011;10952;50.836;4.348;2024-01-30T04:06:52;8.40;;;4.40;;
21581;SDS011;10952;50.836;4.348;2024-01-30T04:09:21;8.00;;;5.07;;
21581;SDS011;10952;50.836;4.348;2024-01-30T04:11:50;6.90;;;4.77;;
21581;SDS011;10952;50.836;4.348;2024-01-30T04:14:18;11.10;;;4.73;;
21581;SDS011;10952;50.836;4.348;2024-01-30T04:16:49;9.23;;;4.67;;
21581;SDS011;10952;50.836;4.348;2024-01-30T04:19:18;9.30;;;5.17;;
21581;SDS011;10952;50.836;4.348;2024-01-30T04:21:45;10.77;;;4.43;;
21581;SDS011;10952;50.836;4.348;2024-01-30T04:24:11;8.73;;;4.77;;
21581;SDS011;10952;50.836;4.348;2024-01-30T04:26:40;10.83;;;4.67;;
21581;SDS011;10952;50.836;4.348;2024-01-30T04:29:13;14.10;;;5.43;;
21581;SDS011;10952;50.836;4.348;2024-01-30T04:31:45;10.00;;;4.70;;
21581;SDS011;10952;50.836;4.348;2024-01-30T04:34:18;9.33;;;4.67;;
21581;SDS011;10952;50.836;4.348;2024-01-30T04:36:45;9.80;;;5.03;;
21581;SDS011;10952;50.836;4.348;2024-01-30T04:41:44;10.07;;;4.87;;
21581;SDS011;10952;50.836;4.348;2024-01-30T04:46:41;10.60;;;5.23;;
21581;SDS011;10952;50.836;4.348;2024-01-30T04:49:09;9.83;;;5.10;;
21581;SDS011;10952;50.836;4.348;2024-01-30T04:51:34;7.07;;;4.53;;
21581;SDS011;10952;50.836;4.348;2024-01-30T04:54:01;10.40;;;5.30;;
21581;SDS011;10952;50.836;4.348;2024-01-30T04:56:27;10.70;;;4.93;;
21581;SDS011;10952;50.836;4.348;2024-01-30T04:59:03;9.23;;;5.10;;
21581;SDS011;10952;50.836;4.348;2024-01-30T05:01:32;9.13;;;4.87;;
21581;SDS011;10952;50.836;4.348;2024-01-30T05:07:30;7.97;;;4.80;;
21581;SDS011;10952;50.836;4.348;2024-01-30T05:10:10;11.57;;;5.23;;
21581;SDS011;10952;50.836;4.348;2024-01-30T05:12:38;9.17;;;5.10;;
21581;SDS011;10952;50.836;4.348;2024-01-30T05:15:04;10.17;;;5.30;;
21581;SDS011;10952;50.836;4.348;2024-01-30T05:17:30;11.07;;;5.40;;
21581;SDS011;10952;50.836;4.348;2024-01-30T05:19:56;10.70;;;5.00;;
21581;SDS011;10952;50.836;4.348;2024-01-30T05:22:24;9.90;;;4.93;;
21581;SDS011;10952;50.836;4.348;2024-01-30T05:24:52;9.70;;;4.77;;
21581;SDS011;10952;50.836;4.348;2024-01-30T05:27:18;10.70;;;4.90;;
21581;SDS011;10952;50.836;4.348;2024-01-30T05:29:50;9.90;;;5.50;;
21581;SDS011;10952;50.836;4.348;2024-01-30T05:32:25;9.83;;;5.07;;
21581;SDS011;10952;50.836;4.348;2024-01-30T05:37:21;11.97;;;5.10;;
21581;SDS011;10952;50.836;4.348;2024-01-30T05:39:47;15.07;;;6.30;;
21581;SDS011;10952;50.836;4.348;2024-01-30T05:42:18;12.70;;;5.80;;
21581;SDS011;10952;50.836;4.348;2024-01-30T05:44:46;13.67;;;6.27;;
21581;SDS011;10952;50.836;4.348;2024-01-30T05:47:15;10.33;;;5.13;;
21581;SDS011;10952;50.836;4.348;2024-01-30T05:49:51;12.33;;;5.23;;
21581;SDS011;10952;50.836;4.348;2024-01-30T05:54:50;10.80;;;5.13;;
21581;SDS011;10952;50.836;4.348;2024-01-30T05:57:17;11.07;;;5.37;;
21581;SDS011;10952;50.836;4.348;2024-01-30T05:59:46;11.90;;;5.23;;
21581;SDS011;10952;50.836;4.348;2024-01-30T06:04:44;13.93;;;5.90;;
21581;SDS011;10952;50.836;4.348;2024-01-30T06:07:11;8.23;;;5.03;;
21581;SDS011;10952;50.836;4.348;2024-01-30T06:09:38;13.63;;;5.73;;
21581;SDS011;10952;50.836;4.348;2024-01-30T06:12:05;10.53;;;5.57;;
21581;SDS011;10952;50.836;4.348;2024-01-30T06:14:30;12.03;;;5.73;;
21581;SDS011;10952;50.836;4.348;2024-01-30T06:17:00;10.80;;;5.40;;
21581;SDS011;10952;50.836;4.348;2024-01-30T06:19:27;10.60;;;5.27;;
21581;SDS011;10952;50.836;4.348;2024-01-30T06:21:56;13.33;;;5.97;;
21581;SDS011;10952;50.836;4.348;2024-01-30T06:26:53;9.80;;;5.10;;
21581;SDS011;10952;50.836;4.348;2024-01-30T06:29:19;10.20;;;5.60;;
21581;SDS011;10952;50.836;4.348;2024-01-30T06:31:46;11.90;;;5.17;;
21581;SDS011;10952;50.836;4.348;2024-01-30T06:34:14;9.70;;;5.63;;
21581;SDS011;10952;50.836;4.348;2024-01-30T06:36:42;13.63;;;5.27;;
21581;SDS011;10952;50.836;4.348;2024-01-30T06:39:13;13.37;;;5.93;;
21581;SDS011;10952;50.836;4.348;2024-01-30T06:41:40;8.70;;;5.50;;
21581;SDS011;10952;50.836;4.348;2024-01-30T06:44:05;11.03;;;6.07;;
21581;SDS011;10952;50.836;4.348;2024-01-30T06:49:03;13.27;;;7.17;;
21581;SDS011;10952;50.836;4.348;2024-01-30T06:53:59;10.07;;;5.37;;
21581;SDS011;10952;50.836;4.348;2024-01-30T06:56:26;8.07;;;5.40;;
21581;SDS011;10952;50.836;4.348;2024-01-30T06:58:53;10.07;;;5.43;;
21581;SDS011;10952;50.836;4.348;2024-01-30T07:01:20;13.40;;;5.97;;
21581;SDS011;10952;50.836;4.348;2024-01-30T07:03:49;10.20;;;5.53;;
21581;SDS011;10952;50.836;4.348;2024-01-30T07:06:18;12.87;;;5.73;;
21581;SDS011;10952;50.836;4.348;2024-01-30T07:08:51;10.67;;;5.93;;
21581;SDS011;10952;50.836;4.348;2024-01-30T07:11:23;9.83;;;5.43;;
21581;SDS011;10952;50.836;4.348;2024-01-30T07:16:23;10.37;;;6.50;;
21581;SDS011;10952;50.836;4.348;2024-01-30T07:18:49;12.97;;;6.13;;
21581;SDS011;10952;50.836;4.348;2024-01-30T07:21:18;13.90;;;6.07;;
21581;SDS011;10952;50.836;4.348;2024-01-30T07:23:44;12.40;;;6.40;;
21581;SDS011;10952;50.836;4.348;2024-01-30T07:28:42;12.40;;;6.43;;
21581;SDS011;10952;50.836;4.348;2024-01-30T07:31:10;13.40;;;6.67;;
21581;SDS011;10952;50.836;4.348;2024-01-30T07:33:38;18.87;;;7.43;;
21581;SDS011;10952;50.836;4.348;2024-01-30T07:36:05;11.63;;;5.93;;
21581;SDS011;10952;50.836;4.348;2024-01-30T07:38:34;14.00;;;6.30;;
21581;SDS011;10952;50.836;4.348;2024-01-30T07:41:03;15.60;;;6.13;;
21581;SDS011;10952;50.836;4.348;2024-01-30T07:43:29;11.97;;;5.90;;
21581;SDS011;10952;50.836;4.348;2024-01-30T07:48:23;15.83;;;7.07;;
21581;SDS011;10952;50.836;4.348;2024-01-30T07:50:49;16.17;;;7.20;;
21581;SDS011;10952;50.836;4.348;2024-01-30T07:53:14;16.33;;;6.73;;
21581;SDS011;10952;50.836;4.348;2024-01-30T07:55:40;22.27;;;9.57;;
21581;SDS011;10952;50.836;4.348;2024-01-30T07:58:06;23.13;;;7.50;;
21581;SDS011;10952;50.836;4.348;2024-01-30T08:00:32;21.27;;;7.20;;
21581;SDS011;10952;50.836;4.348;2024-01-30T08:02:58;20.70;;;8.67;;
21581;SDS011;10952;50.836;4.348;2024-01-30T08:05:25;18.47;;;7.73;;
21581;SDS011;10952;50.836;4.348;2024-01-30T08:07:51;19.50;;;8.10;;
21581;SDS011;10952;50.836;4.348;2024-01-30T08:10:18;24.70;;;8.03;;
21581;SDS011;10952;50.836;4.348;2024-01-30T08:15:17;16.87;;;6.93;;
21581;SDS011;10952;50.836;4.348;2024-01-30T08:17:44;16.03;;;7.23;;
21581;SDS011;10952;50.836;4.348;2024-01-30T08:20:10;13.97;;;6.80;;
21581;SDS011;10952;50.836;4.348;2024-01-30T08:22:43;18.20;;;7.60;;
21581;SDS011;10952;50.836;4.348;2024-01-30T08:25:12;15.37;;;7.27;;
21581;SDS011;10952;50.836;4.348;2024-01-30T08:27:40;17.63;;;6.73;;
21581;SDS011;10952;50.836;4.348;2024-01-30T08:30:20;16.13;;;6.90;;
21581;SDS011;10952;50.836;4.348;2024-01-30T08:38:57;18.23;;;7.33;;
21581;SDS011;10952;50.836;4.348;2024-01-30T08:43:54;20.87;;;8.47;;
21581;SDS011;10952;50.836;4.348;2024-01-30T08:46:19;17.37;;;7.63;;
21581;SDS011;10952;50.836;4.348;2024-01-30T08:48:46;16.57;;;6.77;;
21581;SDS011;10952;50.836;4.348;2024-01-30T08:51:13;19.97;;;7.97;;
21581;SDS011;10952;50.836;4.348;2024-01-30T08:53:41;16.20;;;6.73;;
21581;SDS011;10952;50.836;4.348;2024-01-30T08:56:09;22.67;;;7.80;;
21581;SDS011;10952;50.836;4.348;2024-01-30T09:01:07;15.70;;;7.17;;
21581;SDS011;10952;50.836;4.348;2024-01-30T09:03:37;14.47;;;7.00;;
21581;SDS011;10952;50.836;4.348;2024-01-30T09:06:11;19.30;;;7.83;;
21581;SDS011;10952;50.836;4.348;2024-01-30T09:08:36;14.87;;;7.17;;
21581;SDS011;10952;50.836;4.348;2024-01-30T09:11:15;17.63;;;7.43;;
21581;SDS011;10952;50.836;4.348;2024-01-30T09:13:42;15.37;;;6.90;;
21581;SDS011;10952;50.836;4.348;2024-01-30T09:16:12;16.10;;;7.60;;
21581;SDS011;10952;50.836;4.348;2024-01-30T09:18:38;18.10;;;7.57;;
21581;SDS011;10952;50.836;4.348;2024-01-30T09:21:16;13.37;;;7.00;;
21581;SDS011;10952;50.836;4.348;2024-01-30T09:23:43;18.73;;;7.50;;
21581;SDS011;10952;50.836;4.348;2024-01-30T09:28:41;17.00;;;7.37;;
21581;SDS011;10952;50.836;4.348;2024-01-30T09:31:11;33.93;;;10.43;;
21581;SDS011;10952;50.836;4.348;2024-01-30T09:33:38;15.63;;;7.77;;
21581;SDS011;10952;50.836;4.348;2024-01-30T09:36:05;21.80;;;7.73;;
21581;SDS011;10952;50.836;4.348;2024-01-30T09:38:34;22.10;;;8.67;;
21581;SDS011;10952;50.836;4.348;2024-01-30T09:41:01;18.57;;;8.40;;
21581;SDS011;10952;50.836;4.348;2024-01-30T09:43:33;19.43;;;8.50;;
21581;SDS011;10952;50.836;4.348;2024-01-30T09:46:02;18.10;;;7.53;;
21581;SDS011;10952;50.836;4.348;2024-01-30T09:48:29;16.63;;;7.87;;
21581;SDS011;10952;50.836;4.348;2024-01-30T09:50:56;23.00;;;8.93;;
21581;SDS011;10952;50.836;4.348;2024-01-30T09:53:25;20.77;;;9.47;;
21581;SDS011;10952;50.836;4.348;2024-01-30T09:55:52;22.23;;;9.53;;
21581;SDS011;10952;50.836;4.348;2024-01-30T09:58:22;21.97;;;9.70;;
21581;SDS011;10952;50.836;4.348;2024-01-30T10:00:48;21.53;;;8.57;;
21581;SDS011;10952;50.836;4.348;2024-01-30T10:03:14;20.27;;;9.20;;
21581;SDS011;10952;50.836;4.348;2024-01-30T10:05:40;21.10;;;9.07;;
21581;SDS011;10952;50.836;4.348;2024-01-30T10:08:08;19.07;;;9.03;;
21581;SDS011;10952;50.836;4.348;2024-01-30T10:10:34;19.27;;;9.40;;
21581;SDS011;10952;50.836;4.348;2024-01-30T10:13:02;24.23;;;10.23;;
21581;SDS011;10952;50.836;4.348;2024-01-30T10:15:28;24.90;;;8.70;;
21581;SDS011;10952;50.836;4.348;2024-01-30T10:18:09;19.80;;;8.70;;
21581;SDS011;10952;50.836;4.348;2024-01-30T10:23:16;18.93;;;10.00;;
21581;SDS011;10952;50.836;4.348;2024-01-30T10:28:32;19.93;;;9.37;;
21581;SDS011;10952;50.836;4.348;2024-01-30T10:30:59;17.37;;;9.40;;
21581;SDS011;10952;50.836;4.348;2024-01-30T10:33:31;20.77;;;8.13;;
21581;SDS011;10952;50.836;4.348;2024-01-30T10:39:00;13.90;;;7.70;;
21581;SDS011;10952;50.836;4.348;2024-01-30T10:41:27;26.33;;;12.10;;
21581;SDS011;10952;50.836;4.348;2024-01-30T10:47:21;16.93;;;7.43;;
21581;SDS011;10952;50.836;4.348;2024-01-30T10:49:57;12.63;;;6.43;;
21581;SDS011;10952;50.836;4.348;2024-01-30T10:52:24;16.03;;;7.77;;
21581;SDS011;10952;50.836;4.348;2024-01-30T10:54:54;15.10;;;7.00;;
21581;SDS011;10952;50.836;4.348;2024-01-30T10:57:23;12.50;;;6.07;;
21581;SDS011;10952;50.836;4.348;2024-01-30T10:59:51;21.17;;;7.63;;
21581;SDS011;10952;50.836;4.348;2024-01-30T11:02:21;15.27;;;5.80;;
21581;SDS011;10952;50.836;4.348;2024-01-30T11:04:59;12.67;;;5.40;;
21581;SDS011;10952;50.836;4.348;2024-01-30T11:07:31;14.70;;;6.17;;
21581;SDS011;10952;50.836;4.348;2024-01-30T11:12:31;10.97;;;5.13;;
21581;SDS011;10952;50.836;4.348;2024-01-30T11:15:17;14.90;;;5.87;;
21581;SDS011;10952;50.836;4.348;2024-01-30T11:17:59;15.43;;;5.50;;
21581;SDS011;10952;50.836;4.348;2024-01-30T11:20:29;13.33;;;5.33;;
21581;SDS011;10952;50.836;4.348;2024-01-30T11:23:04;14.40;;;4.03;;
21581;SDS011;10952;50.836;4.348;2024-01-30T11:25:34;10.17;;;2.77;;
21581;SDS011;10952;50.836;4.348;2024-01-30T11:28:03;7.50;;;2.27;;
21581;SDS011;10952;50.836;4.348;2024-01-30T11:30:31;8.00;;;2.40;;
21581;SDS011;10952;50.836;4.348;2024-01-30T11:33:00;5.87;;;1.83;;
21581;SDS011;10952;50.836;4.348;2024-01-30T11:35:35;5.23;;;1.50;;
21581;SDS011;10952;50.836;4.348;2024-01-30T11:38:03;4.00;;;1.70;;
21581;SDS011;10952;50.836;4.348;2024-01-30T11:40:50;11.33;;;1.67;;
21581;SDS011;10952;50.836;4.348;2024-01-30T11:43:20;6.63;;;1.43;;
21581;SDS011;10952;50.836;4.348;2024-01-30T11:45:52;4.97;;;1.70;;
21581;SDS011;10952;50.836;4.348;2024-01-30T11:48:23;13.10;;;2.50;;
21581;SDS011;10952;50.836;4.348;2024-01-30T11:53:41;3.30;;;1.10;;
21581;SDS011;10952;50.836;4.348;2024-01-30T11:56:15;4.53;;;1.77;;
21581;SDS011;10952;50.836;4.348;2024-01-30T11:58:46;5.60;;;3.10;;
21581;SDS011;10952;50.836;4.348;2024-01-30T12:01:14;6.37;;;1.27;;
21581;SDS011;10952;50.836;4.348;2024-01-30T12:03:51;4.43;;;1.00;;
21581;SDS011;10952;50.836;4.348;2024-01-30T12:09:04;4.03;;;1.50;;
21581;SDS011;10952;50.836;4.348;2024-01-30T12:11:29;6.07;;;1.57;;
21581;SDS011;10952;50.836;4.348;2024-01-30T12:13:58;5.23;;;1.10;;
21581;SDS011;10952;50.836;4.348;2024-01-30T12:16:24;5.53;;;1.00;;
21581;SDS011;10952;50.836;4.348;2024-01-30T12:18:59;9.77;;;1.53;;
21581;SDS011;10952;50.836;4.348;2024-01-30T12:21:26;5.17;;;1.40;;
21581;SDS011;10952;50.836;4.348;2024-01-30T12:23:58;5.83;;;1.60;;
21581;SDS011;10952;50.836;4.348;2024-01-30T12:26:28;2.90;;;0.80;;
21581;SDS011;10952;50.836;4.348;2024-01-30T12:31:31;3.90;;;0.97;;
21581;SDS011;10952;50.836;4.348;2024-01-30T12:34:00;5.30;;;0.87;;
21581;SDS011;10952;50.836;4.348;2024-01-30T12:38:59;2.80;;;0.80;;
21581;SDS011;10952;50.836;4.348;2024-01-30T12:41:27;4.67;;;1.20;;
21581;SDS011;10952;50.836;4.348;2024-01-30T12:44:00;6.37;;;0.90;;
21581;SDS011;10952;50.836;4.348;2024-01-30T12:46:29;4.23;;;0.97;;
21581;SDS011;10952;50.836;4.348;2024-01-30T12:48:55;6.00;;;0.90;;
21581;SDS011;10952;50.836;4.348;2024-01-30T12:51:21;8.73;;;1.40;;
21581;SDS011;10952;50.836;4.348;2024-01-30T12:53:50;5.77;;;1.10;;
21581;SDS011;10952;50.836;4.348;2024-01-30T13:02:21;7.13;;;1.47;;
21581;SDS011;10952;50.836;4.348;2024-01-30T13:04:49;5.40;;;1.00;;
21581;SDS011;10952;50.836;4.348;2024-01-30T13:07:19;5.63;;;1.60;;
21581;SDS011;10952;50.836;4.348;2024-01-30T13:09:45;9.13;;;1.37;;
21581;SDS011;10952;50.836;4.348;2024-01-30T13:14:45;4.13;;;1.30;;
21581;SDS011;10952;50.836;4.348;2024-01-30T13:20:34;6.17;;;1.70;;
21581;SDS011;10952;50.836;4.348;2024-01-30T13:23:03;11.77;;;1.57;;
21581;SDS011;10952;50.836;4.348;2024-01-30T13:25:35;4.17;;;1.00;;
21581;SDS011;10952;50.836;4.348;2024-01-30T13:30:31;4.43;;;1.20;;
21581;SDS011;10952;50.836;4.348;2024-01-30T13:32:58;11.00;;;1.63;;
21581;SDS011;10952;50.836;4.348;2024-01-30T13:35:26;6.57;;;1.60;;
21581;SDS011;10952;50.836;4.348;2024-01-30T13:37:52;5.50;;;1.40;;
21581;SDS011;10952;50.836;4.348;2024-01-30T13:49:09;13.43;;;1.40;;
21581;SDS011;10952;50.836;4.348;2024-01-30T13:51:39;6.90;;;2.00;;
21581;SDS011;10952;50.836;4.348;2024-01-30T13:54:22;6.57;;;1.20;;
21581;SDS011;10952;50.836;4.348;2024-01-30T13:56:48;5.90;;;1.53;;
21581;SDS011;10952;50.836;4.348;2024-01-30T13:59:17;5.43;;;1.30;;
21581;SDS011;10952;50.836;4.348;2024-01-30T14:01:52;6.43;;;1.57;;
21581;SDS011;10952;50.836;4.348;2024-01-30T14:04:19;8.90;;;1.20;;
21581;SDS011;10952;50.836;4.348;2024-01-30T14:06:51;10.37;;;2.60;;
21581;SDS011;10952;50.836;4.348;2024-01-30T14:09:17;8.00;;;1.57;;
21581;SDS011;10952;50.836;4.348;2024-01-30T14:11:45;8.70;;;1.23;;
21581;SDS011;10952;50.836;4.348;2024-01-30T14:14:18;5.00;;;1.10;;
21581;SDS011;10952;50.836;4.348;2024-01-30T14:16:45;9.93;;;1.53;;
21581;SDS011;10952;50.836;4.348;2024-01-30T14:19:16;6.70;;;1.70;;
21581;SDS011;10952;50.836;4.348;2024-01-30T14:21:44;9.60;;;1.27;;
21581;SDS011;10952;50.836;4.348;2024-01-30T14:24:16;5.00;;;1.70;;
21581;SDS011;10952;50.836;4.348;2024-01-30T14:26:49;7.10;;;1.10;;
21581;SDS011;10952;50.836;4.348;2024-01-30T14:29:15;10.73;;;1.37;;
21581;SDS011;10952;50.836;4.348;2024-01-30T14:31:45;3.90;;;1.00;;
21581;SDS011;10952;50.836;4.348;2024-01-30T14:34:11;8.30;;;3.47;;
21581;SDS011;10952;50.836;4.348;2024-01-30T14:36:39;7.33;;;1.53;;
21581;SDS011;10952;50.836;4.348;2024-01-30T14:41:45;7.43;;;1.10;;
21581;SDS011;10952;50.836;4.348;2024-01-30T14:44:16;9.43;;;1.23;;
21581;SDS011;10952;50.836;4.348;2024-01-30T14:46:42;7.30;;;1.20;;
21581;SDS011;10952;50.836;4.348;2024-01-30T14:49:10;5.50;;;1.30;;
21581;SDS011;10952;50.836;4.348;2024-01-30T14:51:36;5.13;;;1.27;;
21581;SDS011;10952;50.836;4.348;2024-01-30T14:54:08;4.90;;;1.33;;
21581;SDS011;10952;50.836;4.348;2024-01-30T14:56:39;7.00;;;1.43;;
21581;SDS011;10952;50.836;4.348;2024-01-30T14:59:09;5.60;;;1.00;;
21581;SDS011;10952;50.836;4.348;2024-01-30T15:01:35;4.80;;;1.13;;
21581;SDS011;10952;50.836;4.348;2024-01-30T15:04:08;8.30;;;1.57;;
21581;SDS011;10952;50.836;4.348;2024-01-30T15:06:37;7.93;;;2.00;;
21581;SDS011;10952;50.836;4.348;2024-01-30T15:09:05;7.63;;;1.90;;
21581;SDS011;10952;50.836;4.348;2024-01-30T15:11:45;10.67;;;1.70;;
21581;SDS011;10952;50.836;4.348;2024-01-30T15:14:11;7.40;;;1.70;;
21581;SDS011;10952;50.836;4.348;2024-01-30T15:16:37;7.17;;;2.10;;
21581;SDS011;10952;50.836;4.348;2024-01-30T15:19:07;5.03;;;1.23;;
21581;SDS011;10952;50.836;4.348;2024-01-30T15:21:34;5.87;;;1.33;;
21581;SDS011;10952;50.836;4.348;2024-01-30T15:24:02;6.23;;;1.70;;
21581;SDS011;10952;50.836;4.348;2024-01-30T15:26:30;8.47;;;1.43;;
21581;SDS011;10952;50.836;4.348;2024-01-30T15:29:03;8.93;;;1.20;;
21581;SDS011;10952;50.836;4.348;2024-01-30T15:31:29;4.93;;;1.20;;
21581;SDS011;10952;50.836;4.348;2024-01-30T15:33:55;4.17;;;1.20;;
21581;SDS011;10952;50.836;4.348;2024-01-30T15:38:53;3.77;;;1.00;;
21581;SDS011;10952;50.836;4.348;2024-01-30T15:41:20;5.03;;;1.30;;
21581;SDS011;10952;50.836;4.348;2024-01-30T15:43:46;3.10;;;1.00;;
21581;SDS011;10952;50.836;4.348;2024-01-30T15:46:13;7.37;;;2.10;;
21581;SDS011;10952;50.836;4.348;2024-01-30T15:48:42;6.53;;;1.40;;
21581;SDS011;10952;50.836;4.348;2024-01-30T15:51:08;4.73;;;1.07;;
21581;SDS011;10952;50.836;4.348;2024-01-30T15:53:34;3.27;;;1.03;;
21581;SDS011;10952;50.836;4.348;2024-01-30T15:56:10;7.10;;;1.57;;
21581;SDS011;10952;50.836;4.348;2024-01-30T16:01:05;4.77;;;1.60;;
21581;SDS011;10952;50.836;4.348;2024-01-30T16:03:37;2.97;;;0.80;;
21581;SDS011;10952;50.836;4.348;2024-01-30T16:06:07;7.90;;;1.33;;
21581;SDS011;10952;50.836;4.348;2024-01-30T16:08:39;4.80;;;1.70;;
21581;SDS011;10952;50.836;4.348;2024-01-30T16:14:34;5.57;;;1.97;;
21581;SDS011;10952;50.836;4.348;2024-01-30T16:17:07;6.60;;;1.57;;
21581;SDS011;10952;50.836;4.348;2024-01-30T16:19:33;6.10;;;1.40;;
21581;SDS011;10952;50.836;4.348;2024-01-30T16:21:59;9.40;;;2.07;;
21581;SDS011;10952;50.836;4.348;2024-01-30T16:24:26;9.60;;;2.27;;
21581;SDS011;10952;50.836;4.348;2024-01-30T16:29:48;6.70;;;1.50;;
21581;SDS011;10952;50.836;4.348;2024-01-30T16:35:37;9.70;;;3.50;;
21581;SDS011;10952;50.836;4.348;2024-01-30T16:38:07;7.27;;;2.13;;
21581;SDS011;10952;50.836;4.348;2024-01-30T16:40:34;11.20;;;2.20;;
21581;SDS011;10952;50.836;4.348;2024-01-30T16:43:00;9.43;;;2.23;;
21581;SDS011;10952;50.836;4.348;2024-01-30T16:45:26;10.57;;;2.27;;
21581;SDS011;10952;50.836;4.348;2024-01-30T16:47:53;5.30;;;1.80;;
21581;SDS011;10952;50.836;4.348;2024-01-30T16:50:22;8.90;;;2.13;;
21581;SDS011;10952;50.836;4.348;2024-01-30T16:52:50;10.53;;;2.50;;
21581;SDS011;10952;50.836;4.348;2024-01-30T16:55:21;15.03;;;3.07;;
21581;SDS011;10952;50.836;4.348;2024-01-30T16:57:50;7.93;;;2.80;;
21581;SDS011;10952;50.836;4.348;2024-01-30T17:00:16;12.93;;;3.70;;
21581;SDS011;10952;50.836;4.348;2024-01-30T17:02:42;9.00;;;3.47;;
21581;SDS011;10952;50.836;4.348;2024-01-30T17:05:21;11.00;;;3.50;;
21581;SDS011;10952;50.836;4.348;2024-01-30T17:10:35;7.30;;;3.43;;
21581;SDS011;10952;50.836;4.348;2024-01-30T17:13:02;11.87;;;3.30;;